sensor_id;sensor_type;location;lat;lon;timestamp;pressure;altitude;pressure_sealevel;temperature;humidity
75425;BME280;64007;50.632;13.700;2024-01-06T00:01:34;96847.66;;;3.17;100.00
75425;BME280;64007;50.632;13.700;2024-01-06T00:04:00;96850.06;;;3.20;100.00
75425;BME280;64007;50.632;13.700;2024-01-06T00:06:26;96865.41;;;3.26;100.00
75425;BME280;64007;50.632;13.700;2024-01-06T00:08:51;96851.34;;;3.27;100.00
75425;BME280;64007;50.632;13.700;2024-01-06T00:11:20;96854.69;;;3.29;100.00
75425;BME280;64007;50.632;13.700;2024-01-06T00:13:46;96850.91;;;3.33;100.00
75425;BME280;64007;50.632;13.700;2024-01-06T00:16:12;96850.91;;;3.33;100.00
75425;BME280;64007;50.632;13.700;2024-01-06T00:18:38;96859.53;;;3.35;100.00
75425;BME280;64007;50.632;13.700;2024-01-06T00:21:05;96861.19;;;3.36;100.00
75425;BME280;64007;50.632;13.700;2024-01-06T00:23:30;96865.38;;;3.38;100.00
75425;BME280;64007;50.632;13.700;2024-01-06T00:25:56;96857.41;;;3.40;100.00
75425;BME280;64007;50.632;13.700;2024-01-06T00:28:21;96851.94;;;3.43;100.00
75425;BME280;64007;50.632;13.700;2024-01-06T00:30:47;96856.97;;;3.46;100.00
75425;BME280;64007;50.632;13.700;2024-01-06T00:33:13;96854.44;;;3.44;100.00
75425;BME280;64007;50.632;13.700;2024-01-06T00:35:39;96868.94;;;3.50;100.00
75425;BME280;64007;50.632;13.700;2024-01-06T00:38:05;96869.78;;;3.51;100.00
75425;BME280;64007;50.632;13.700;2024-01-06T00:40:30;96852.09;;;3.53;100.00
75425;BME280;64007;50.632;13.700;2024-01-06T00:42:58;96859.88;;;3.54;100.00
75425;BME280;64007;50.632;13.700;2024-01-06T00:45:24;96867.88;;;3.53;100.00
75425;BME280;64007;50.632;13.700;2024-01-06T00:47:50;96859.16;;;3.52;100.00
75425;BME280;64007;50.632;13.700;2024-01-06T00:50:16;96868.50;;;3.56;100.00
75425;BME280;64007;50.632;13.700;2024-01-06T00:52:43;96868.50;;;3.56;100.00
75425;BME280;64007;50.632;13.700;2024-01-06T00:55:09;96867.44;;;3.59;100.00
75425;BME280;64007;50.632;13.700;2024-01-06T00:57:35;96853.34;;;3.60;100.00
75425;BME280;64007;50.632;13.700;2024-01-06T01:00:01;96865.22;;;3.65;100.00
75425;BME280;64007;50.632;13.700;2024-01-06T01:02:26;96859.03;;;3.66;100.00
75425;BME280;64007;50.632;13.700;2024-01-06T01:04:52;96869.31;;;3.69;100.00
75425;BME280;64007;50.632;13.700;2024-01-06T01:07:18;96869.09;;;3.72;100.00
75425;BME280;64007;50.632;13.700;2024-01-06T01:09:44;96871.00;;;3.70;100.00
75425;BME280;64007;50.632;13.700;2024-01-06T01:12:09;96867.41;;;3.71;100.00
75425;BME280;64007;50.632;13.700;2024-01-06T01:14:35;96868.25;;;3.72;100.00
75425;BME280;64007;50.632;13.700;2024-01-06T01:17:01;96870.03;;;3.71;100.00
75425;BME280;64007;50.632;13.700;2024-01-06T01:19:27;96869.94;;;3.73;100.00
75425;BME280;64007;50.632;13.700;2024-01-06T01:21:52;96872.47;;;3.74;100.00
75425;BME280;64007;50.632;13.700;2024-01-06T01:24:23;96874.34;;;3.72;100.00
75425;BME280;64007;50.632;13.700;2024-01-06T01:26:49;96869.22;;;3.71;100.00
75425;BME280;64007;50.632;13.700;2024-01-06T01:29:16;96865.63;;;3.72;100.00
75425;BME280;64007;50.632;13.700;2024-01-06T01:31:42;96865.53;;;3.73;100.00
75425;BME280;64007;50.632;13.700;2024-01-06T01:34:08;96874.34;;;3.72;100.00
75425;BME280;64007;50.632;13.700;2024-01-06T01:36:33;96876.03;;;3.73;100.00
75425;BME280;64007;50.632;13.700;2024-01-06T01:38:59;96873.91;;;3.78;100.00
75425;BME280;64007;50.632;13.700;2024-01-06T01:41:25;96873.91;;;3.78;100.00
75425;BME280;64007;50.632;13.700;2024-01-06T01:43:51;96866.03;;;3.78;100.00
75425;BME280;64007;50.632;13.700;2024-01-06T01:46:26;96868.66;;;3.78;100.00
75425;BME280;64007;50.632;13.700;2024-01-06T01:48:56;96865.81;;;3.82;100.00
75425;BME280;64007;50.632;13.700;2024-01-06T01:51:22;96874.53;;;3.82;100.00
75425;BME280;64007;50.632;13.700;2024-01-06T01:53:49;96870.34;;;3.80;100.00
75425;BME280;64007;50.632;13.700;2024-01-06T01:56:16;96865.06;;;3.80;100.00
75425;BME280;64007;50.632;13.700;2024-01-06T01:58:42;96860.03;;;3.76;100.00
75425;BME280;64007;50.632;13.700;2024-01-06T02:01:08;96861.72;;;3.77;100.00
75425;BME280;64007;50.632;13.700;2024-01-06T02:03:35;96851.66;;;3.71;100.00
75425;BME280;64007;50.632;13.700;2024-01-06T02:06:01;96856.84;;;3.84;100.00
75425;BME280;64007;50.632;13.700;2024-01-06T02:08:27;96860.25;;;3.73;100.00
75425;BME280;64007;50.632;13.700;2024-01-06T02:10:54;96858.69;;;3.71;100.00
75425;BME280;64007;50.632;13.700;2024-01-06T02:13:20;96854.50;;;3.68;100.00
75425;BME280;64007;50.632;13.700;2024-01-06T02:15:46;96857.06;;;3.81;100.00
75425;BME280;64007;50.632;13.700;2024-01-06T02:18:12;96863.63;;;3.75;100.00
75425;BME280;64007;50.632;13.700;2024-01-06T02:20:38;96859.03;;;3.66;100.00
75425;BME280;64007;50.632;13.700;2024-01-06T02:23:05;96862.28;;;3.57;100.00
75425;BME280;64007;50.632;13.700;2024-01-06T02:25:31;96857.47;;;3.51;100.00
75425;BME280;64007;50.632;13.700;2024-01-06T02:27:57;96855.50;;;3.42;100.00
75425;BME280;64007;50.632;13.700;2024-01-06T02:30:23;96859.06;;;3.41;100.00
75425;BME280;64007;50.632;13.700;2024-01-06T02:32:49;96857.41;;;3.40;100.00
75425;BME280;64007;50.632;13.700;2024-01-06T02:35:14;96853.41;;;3.34;100.00
75425;BME280;64007;50.632;13.700;2024-01-06T02:37:40;96861.19;;;3.36;100.00
75425;BME280;64007;50.632;13.700;2024-01-06T02:40:06;96857.41;;;3.40;100.00
75425;BME280;64007;50.632;13.700;2024-01-06T02:42:32;96853.03;;;3.28;100.00
75425;BME280;64007;50.632;13.700;2024-01-06T02:44:58;96858.59;;;3.23;100.00
75425;BME280;64007;50.632;13.700;2024-01-06T02:47:24;96856.47;;;3.15;100.00
75425;BME280;64007;50.632;13.700;2024-01-06T02:49:49;96858.06;;;3.18;100.00
75425;BME280;64007;50.632;13.700;2024-01-06T02:52:15;96864.97;;;3.19;100.00
75425;BME280;64007;50.632;13.700;2024-01-06T02:54:41;96867.94;;;3.14;100.00
75425;BME280;64007;50.632;13.700;2024-01-06T02:57:07;96867.09;;;3.01;100.00
75425;BME280;64007;50.632;13.700;2024-01-06T02:59:32;96861.75;;;2.90;100.00
75425;BME280;64007;50.632;13.700;2024-01-06T03:02:01;96862.94;;;2.86;100.00
75425;BME280;64007;50.632;13.700;2024-01-06T03:04:26;96864.19;;;2.80;100.00
75425;BME280;64007;50.632;13.700;2024-01-06T03:06:52;96859.13;;;2.77;100.00
75425;BME280;64007;50.632;13.700;2024-01-06T03:09:19;96862.41;;;2.81;100.00
75425;BME280;64007;50.632;13.700;2024-01-06T03:11:45;96868.78;;;2.77;100.00
75425;BME280;64007;50.632;13.700;2024-01-06T03:14:10;96861.84;;;2.76;100.00
75425;BME280;64007;50.632;13.700;2024-01-06T03:16:36;96869.81;;;2.74;100.00
75425;BME280;64007;50.632;13.700;2024-01-06T03:19:03;96863.53;;;2.77;100.00
75425;BME280;64007;50.632;13.700;2024-01-06T03:21:28;96868.16;;;2.86;100.00
75425;BME280;64007;50.632;13.700;2024-01-06T03:23:54;96869.53;;;2.92;100.00
75425;BME280;64007;50.632;13.700;2024-01-06T03:26:21;96868.47;;;2.94;100.00
75425;BME280;64007;50.632;13.700;2024-01-06T03:28:49;96873.53;;;2.85;100.00
75425;BME280;64007;50.632;13.700;2024-01-06T03:31:15;96870.47;;;2.78;100.00
75425;BME280;64007;50.632;13.700;2024-01-06T03:33:42;96880.44;;;2.73;100.00
75425;BME280;64007;50.632;13.700;2024-01-06T03:36:08;96877.59;;;2.76;100.00
75425;BME280;64007;50.632;13.700;2024-01-06T03:38:33;96881.38;;;2.72;100.00
75425;BME280;64007;50.632;13.700;2024-01-06T03:41:00;96881.38;;;2.72;100.00
75425;BME280;64007;50.632;13.700;2024-01-06T03:43:25;96880.31;;;2.74;100.00
75425;BME280;64007;50.632;13.700;2024-01-06T03:45:51;96877.59;;;2.76;100.00
75425;BME280;64007;50.632;13.700;2024-01-06T03:48:16;96878.16;;;2.81;100.00
75425;BME280;64007;50.632;13.700;2024-01-06T03:50:43;96878.69;;;2.86;100.00
75425;BME280;64007;50.632;13.700;2024-01-06T03:53:09;96877.94;;;2.84;100.00
75425;BME280;64007;50.632;13.700;2024-01-06T03:55:35;96876.78;;;2.88;100.00
75425;BME280;64007;50.632;13.700;2024-01-06T03:58:00;96876.03;;;2.86;100.00
75425;BME280;64007;50.632;13.700;2024-01-06T04:00:26;96882.97;;;2.87;100.00
75425;BME280;64007;50.632;13.700;2024-01-06T04:02:52;96879.63;;;2.85;100.00
75425;BME280;64007;50.632;13.700;2024-01-06T04:05:18;96883.72;;;2.89;100.00
75425;BME280;64007;50.632;13.700;2024-01-06T04:07:43;96879.00;;;2.94;100.00
75425;BME280;64007;50.632;13.700;2024-01-06T04:10:09;96879.19;;;2.91;100.00
75425;BME280;64007;50.632;13.700;2024-01-06T04:12:35;96875.22;;;2.86;100.00
75425;BME280;64007;50.632;13.700;2024-01-06T04:15:00;96876.16;;;2.85;100.00
75425;BME280;64007;50.632;13.700;2024-01-06T04:17:26;96879.41;;;2.88;100.00
75425;BME280;64007;50.632;13.700;2024-01-06T04:19:52;96882.03;;;2.88;100.00
75425;BME280;64007;50.632;13.700;2024-01-06T04:22:18;96883.28;;;2.95;100.00
75425;BME280;64007;50.632;13.700;2024-01-06T04:24:44;96878.88;;;2.96;100.00
75425;BME280;64007;50.632;13.700;2024-01-06T04:27:10;96882.25;;;2.98;100.00
75425;BME280;64007;50.632;13.700;2024-01-06T04:29:36;96878.66;;;2.99;100.00
75425;BME280;64007;50.632;13.700;2024-01-06T04:32:02;96870.91;;;2.97;100.00
75425;BME280;64007;50.632;13.700;2024-01-06T04:34:27;96875.06;;;3.12;100.00
75425;BME280;64007;50.632;13.700;2024-01-06T04:36:53;96871.94;;;3.07;100.00
75425;BME280;64007;50.632;13.700;2024-01-06T04:39:19;96879.06;;;3.05;100.00
75425;BME280;64007;50.632;13.700;2024-01-06T04:41:44;96876.13;;;3.10;100.00
75425;BME280;64007;50.632;13.700;2024-01-06T04:44:10;96874.66;;;3.06;100.00
75425;BME280;64007;50.632;13.700;2024-01-06T04:46:36;96878.13;;;3.06;100.00
75425;BME280;64007;50.632;13.700;2024-01-06T04:49:03;96877.41;;;3.04;100.00
75425;BME280;64007;50.632;13.700;2024-01-06T04:51:29;96884.34;;;3.05;100.00
75425;BME280;64007;50.632;13.700;2024-01-06T04:53:55;96876.97;;;3.10;100.00
75425;BME280;64007;50.632;13.700;2024-01-06T04:56:21;96885.69;;;3.11;100.00
75425;BME280;64007;50.632;13.700;2024-01-06T04:58:47;96887.47;;;3.10;100.00
75425;BME280;64007;50.632;13.700;2024-01-06T05:01:12;96886.63;;;3.10;100.00
75425;BME280;64007;50.632;13.700;2024-01-06T05:03:38;96883.06;;;3.11;100.00
75425;BME280;64007;50.632;13.700;2024-01-06T05:06:04;96881.78;;;3.17;100.00
75425;BME280;64007;50.632;13.700;2024-01-06T05:08:30;96882.75;;;3.15;100.00
75425;BME280;64007;50.632;13.700;2024-01-06T05:10:59;96881.78;;;3.17;100.00
75425;BME280;64007;50.632;13.700;2024-01-06T05:13:25;96891.47;;;3.16;100.00
75425;BME280;64007;50.632;13.700;2024-01-06T05:15:50;96881.78;;;3.17;100.00
75425;BME280;64007;50.632;13.700;2024-01-06T05:18:16;96885.16;;;3.19;100.00
75425;BME280;64007;50.632;13.700;2024-01-06T05:20:42;96893.81;;;3.21;100.00
75425;BME280;64007;50.632;13.700;2024-01-06T05:23:09;96896.09;;;3.25;100.00
75425;BME280;64007;50.632;13.700;2024-01-06T05:25:34;96898.84;;;3.24;100.00
75425;BME280;64007;50.632;13.700;2024-01-06T05:28:00;96903.16;;;3.25;100.00
75425;BME280;64007;50.632;13.700;2024-01-06T05:30:26;96908.41;;;3.25;100.00
75425;BME280;64007;50.632;13.700;2024-01-06T05:32:52;96907.34;;;3.27;100.00
75425;BME280;64007;50.632;13.700;2024-01-06T05:35:17;96908.81;;;3.31;100.00
75425;BME280;64007;50.632;13.700;2024-01-06T05:37:43;96914.78;;;3.33;100.00
75425;BME280;64007;50.632;13.700;2024-01-06T05:40:09;96916.16;;;3.39;100.00
75425;BME280;64007;50.632;13.700;2024-01-06T05:42:35;96919.72;;;3.38;100.00
75425;BME280;64007;50.632;13.700;2024-01-06T05:45:00;96922.34;;;3.38;100.00
75425;BME280;64007;50.632;13.700;2024-01-06T05:47:26;96920.88;;;3.34;100.00
75425;BME280;64007;50.632;13.700;2024-01-06T05:49:52;96918.16;;;3.35;100.00
75425;BME280;64007;50.632;13.700;2024-01-06T05:52:18;96923.53;;;3.34;100.00
75425;BME280;64007;50.632;13.700;2024-01-06T05:54:43;96921.72;;;3.34;100.00
75425;BME280;64007;50.632;13.700;2024-01-06T05:57:09;96932.44;;;3.31;100.00
75425;BME280;64007;50.632;13.700;2024-01-06T05:59:35;96937.59;;;3.33;100.00
75425;BME280;64007;50.632;13.700;2024-01-06T06:02:01;96944.31;;;3.37;100.00
75425;BME280;64007;50.632;13.700;2024-01-06T06:04:27;96946.94;;;3.37;100.00
75425;BME280;64007;50.632;13.700;2024-01-06T06:06:53;96957.25;;;3.40;100.00
75425;BME280;64007;50.632;13.700;2024-01-06T06:09:19;96953.47;;;3.44;100.00
75425;BME280;64007;50.632;13.700;2024-01-06T06:11:46;96957.25;;;3.40;100.00
75425;BME280;64007;50.632;13.700;2024-01-06T06:14:12;96961.03;;;3.36;100.00
75425;BME280;64007;50.632;13.700;2024-01-06T06:16:38;96963.97;;;3.31;100.00
75425;BME280;64007;50.632;13.700;2024-01-06T06:19:04;96968.59;;;3.28;100.00
75425;BME280;64007;50.632;13.700;2024-01-06T06:21:30;96974.28;;;3.34;100.00
75425;BME280;64007;50.632;13.700;2024-01-06T06:23:55;96970.06;;;3.32;100.00
75425;BME280;64007;50.632;13.700;2024-01-06T06:26:21;96964.59;;;3.35;100.00
75425;BME280;64007;50.632;13.700;2024-01-06T06:28:47;96971.34;;;3.39;100.00
75425;BME280;64007;50.632;13.700;2024-01-06T06:31:13;96968.19;;;3.34;100.00
75425;BME280;64007;50.632;13.700;2024-01-06T06:33:38;96983.94;;;3.34;100.00
75425;BME280;64007;50.632;13.700;2024-01-06T06:36:05;96979.53;;;3.34;100.00
75425;BME280;64007;50.632;13.700;2024-01-06T06:38:31;96985.00;;;3.31;100.00
75425;BME280;64007;50.632;13.700;2024-01-06T06:40:57;96984.16;;;3.31;100.00
75425;BME280;64007;50.632;13.700;2024-01-06T06:43:23;96987.63;;;3.31;100.00
75425;BME280;64007;50.632;13.700;2024-01-06T06:45:48;96982.47;;;3.30;100.00
75425;BME280;64007;50.632;13.700;2024-01-06T06:48:14;96983.31;;;3.30;100.00
75425;BME280;64007;50.632;13.700;2024-01-06T06:50:40;96994.44;;;3.34;100.00
75425;BME280;64007;50.632;13.700;2024-01-06T06:53:09;96991.81;;;3.34;100.00
75425;BME280;64007;50.632;13.700;2024-01-06T06:55:35;97001.38;;;3.35;100.00
75425;BME280;64007;50.632;13.700;2024-01-06T06:58:03;96996.13;;;3.35;100.00
75425;BME280;64007;50.632;13.700;2024-01-06T07:00:29;96989.19;;;3.34;100.00
75425;BME280;64007;50.632;13.700;2024-01-06T07:02:55;96992.03;;;3.31;100.00
75425;BME280;64007;50.632;13.700;2024-01-06T07:05:20;96991.31;;;3.29;100.00
75425;BME280;64007;50.632;13.700;2024-01-06T07:07:46;97009.69;;;3.29;100.00
75425;BME280;64007;50.632;13.700;2024-01-06T07:10:12;97011.91;;;3.35;100.00
75425;BME280;64007;50.632;13.700;2024-01-06T07:12:38;97012.00;;;3.33;100.00
75425;BME280;64007;50.632;13.700;2024-01-06T07:15:04;97010.63;;;3.28;100.00
75425;BME280;64007;50.632;13.700;2024-01-06T07:17:30;97010.00;;;3.24;100.00
75425;BME280;64007;50.632;13.700;2024-01-06T07:19:56;97014.41;;;3.24;100.00
75425;BME280;64007;50.632;13.700;2024-01-06T07:22:21;97023.03;;;3.26;100.00
75425;BME280;64007;50.632;13.700;2024-01-06T07:24:47;97028.28;;;3.26;100.00
75425;BME280;64007;50.632;13.700;2024-01-06T07:27:13;97030.81;;;3.27;100.00
75425;BME280;64007;50.632;13.700;2024-01-06T07:29:38;97031.13;;;3.35;100.00
75425;BME280;64007;50.632;13.700;2024-01-06T07:32:04;97035.03;;;3.30;100.00
75425;BME280;64007;50.632;13.700;2024-01-06T07:34:32;97047.53;;;3.26;100.00
75425;BME280;64007;50.632;13.700;2024-01-06T07:36:58;97044.06;;;3.26;100.00
75425;BME280;64007;50.632;13.700;2024-01-06T07:39:23;97046.16;;;3.33;100.00
75425;BME280;64007;50.632;13.700;2024-01-06T07:41:52;97037.66;;;3.30;100.00
75425;BME280;64007;50.632;13.700;2024-01-06T07:44:18;97044.38;;;3.34;100.00
75425;BME280;64007;50.632;13.700;2024-01-06T07:46:52;97035.44;;;3.24;100.00
75425;BME280;64007;50.632;13.700;2024-01-06T07:49:18;97043.94;;;3.27;100.00
75425;BME280;64007;50.632;13.700;2024-01-06T07:51:44;97050.78;;;3.30;100.00
75425;BME280;64007;50.632;13.700;2024-01-06T07:54:10;97047.22;;;3.31;100.00
75425;BME280;64007;50.632;13.700;2024-01-06T07:56:37;97055.41;;;3.39;100.00
75425;BME280;64007;50.632;13.700;2024-01-06T07:59:03;97048.25;;;3.41;100.00
75425;BME280;64007;50.632;13.700;2024-01-06T08:01:30;97049.53;;;3.48;100.00
75425;BME280;64007;50.632;13.700;2024-01-06T08:03:55;97053.72;;;3.51;100.00
75425;BME280;64007;50.632;13.700;2024-01-06T08:06:21;97065.50;;;3.58;100.00
75425;BME280;64007;50.632;13.700;2024-01-06T08:08:47;97064.66;;;3.57;100.00
75425;BME280;64007;50.632;13.700;2024-01-06T08:11:13;97064.66;;;3.57;100.00
75425;BME280;64007;50.632;13.700;2024-01-06T08:13:38;97074.78;;;3.63;100.00
75425;BME280;64007;50.632;13.700;2024-01-06T08:16:04;97075.63;;;3.76;100.00
75425;BME280;64007;50.632;13.700;2024-01-06T08:18:30;97079.63;;;3.69;100.00
75425;BME280;64007;50.632;13.700;2024-01-06T08:20:56;97083.94;;;3.70;100.00
75425;BME280;64007;50.632;13.700;2024-01-06T08:23:22;97083.50;;;3.76;100.00
75425;BME280;64007;50.632;13.700;2024-01-06T08:25:48;97080.97;;;3.88;100.00
75425;BME280;64007;50.632;13.700;2024-01-06T08:28:14;97083.72;;;3.86;100.00
75425;BME280;64007;50.632;13.700;2024-01-06T08:30:44;97085.72;;;3.83;100.00
75425;BME280;64007;50.632;13.700;2024-01-06T08:33:10;97087.63;;;3.81;100.00
75425;BME280;64007;50.632;13.700;2024-01-06T08:35:36;97089.09;;;3.72;100.00
75425;BME280;64007;50.632;13.700;2024-01-06T08:38:06;97080.34;;;3.71;100.00
75425;BME280;64007;50.632;13.700;2024-01-06T08:40:33;97084.66;;;3.72;100.00
75425;BME280;64007;50.632;13.700;2024-01-06T08:43:00;97091.41;;;3.76;100.00
75425;BME280;64007;50.632;13.700;2024-01-06T08:45:25;97097.91;;;3.84;100.00
75425;BME280;64007;50.632;13.700;2024-01-06T08:47:51;97096.03;;;3.86;100.00
75425;BME280;64007;50.632;13.700;2024-01-06T08:50:17;97104.66;;;3.88;100.00
75425;BME280;64007;50.632;13.700;2024-01-06T08:52:42;97106.13;;;3.92;100.00
75425;BME280;64007;50.632;13.700;2024-01-06T08:55:08;97106.97;;;3.92;100.00
75425;BME280;64007;50.632;13.700;2024-01-06T08:57:34;97107.69;;;3.94;100.00
75425;BME280;64007;50.632;13.700;2024-01-06T09:00:00;97106.66;;;4.09;100.00
75425;BME280;64007;50.632;13.700;2024-01-06T09:02:26;97117.59;;;4.03;100.00
75425;BME280;64007;50.632;13.700;2024-01-06T09:04:52;97122.00;;;4.16;100.00
75425;BME280;64007;50.632;13.700;2024-01-06T09:07:17;97119.50;;;4.14;100.00
75425;BME280;64007;50.632;13.700;2024-01-06T09:09:44;97114.03;;;4.04;100.00
75425;BME280;64007;50.632;13.700;2024-01-06T09:12:09;97128.63;;;4.21;100.00
75425;BME280;64007;50.632;13.700;2024-01-06T09:14:35;97123.25;;;3.97;100.00
75425;BME280;64007;50.632;13.700;2024-01-06T09:17:01;97126.53;;;3.88;100.00
75425;BME280;64007;50.632;13.700;2024-01-06T09:19:27;97128.72;;;3.82;100.00
75425;BME280;64007;50.632;13.700;2024-01-06T09:21:54;97127.78;;;3.83;100.00
75425;BME280;64007;50.632;13.700;2024-01-06T09:24:20;97133.03;;;3.83;100.00
75425;BME280;64007;50.632;13.700;2024-01-06T09:26:46;97136.41;;;3.85;100.00
75425;BME280;64007;50.632;13.700;2024-01-06T09:29:12;97133.69;;;3.86;100.00
75425;BME280;64007;50.632;13.700;2024-01-06T09:31:38;97136.84;;;3.91;100.00
75425;BME280;64007;50.632;13.700;2024-01-06T09:34:04;97132.31;;;3.93;100.00
75425;BME280;64007;50.632;13.700;2024-01-06T09:36:32;97131.81;;;4.01;100.00
75425;BME280;64007;50.632;13.700;2024-01-06T09:38:58;97133.25;;;4.30;100.00
75425;BME280;64007;50.632;13.700;2024-01-06T09:41:24;97135.66;;;4.46;100.00
75425;BME280;64007;50.632;13.700;2024-01-06T09:43:50;97130.50;;;4.45;100.00
75425;BME280;64007;50.632;13.700;2024-01-06T09:46:26;97131.13;;;4.35;100.00
75425;BME280;64007;50.632;13.700;2024-01-06T09:48:54;97134.94;;;4.31;100.00
75425;BME280;64007;50.632;13.700;2024-01-06T09:51:21;97124.63;;;4.28;100.00
75425;BME280;64007;50.632;13.700;2024-01-06T09:54:01;97123.78;;;4.28;100.00
75425;BME280;64007;50.632;13.700;2024-01-06T09:56:29;97125.06;;;4.22;100.00
75425;BME280;64007;50.632;13.700;2024-01-06T09:58:56;97132.00;;;4.23;100.00
75425;BME280;64007;50.632;13.700;2024-01-06T10:01:21;97126.22;;;4.18;100.00
75425;BME280;64007;50.632;13.700;2024-01-06T10:03:48;97122.44;;;4.09;100.00
75425;BME280;64007;50.632;13.700;2024-01-06T10:06:14;97118.94;;;4.22;100.00
75425;BME280;64007;50.632;13.700;2024-01-06T10:08:43;97123.78;;;4.28;100.00
75425;BME280;64007;50.632;13.700;2024-01-06T10:11:08;97124.84;;;4.25;100.00
75425;BME280;64007;50.632;13.700;2024-01-06T10:13:35;97110.34;;;4.07;100.00
75425;BME280;64007;50.632;13.700;2024-01-06T10:16:02;97118.75;;;4.12;100.00
75425;BME280;64007;50.632;13.700;2024-01-06T10:18:28;97112.38;;;4.40;100.00
75425;BME280;64007;50.632;13.700;2024-01-06T10:20:56;97112.50;;;4.38;100.00
75425;BME280;64007;50.632;13.700;2024-01-06T10:23:22;97112.19;;;4.30;100.00
75425;BME280;64007;50.632;13.700;2024-01-06T10:25:52;97115.78;;;4.29;100.00
75425;BME280;64007;50.632;13.700;2024-01-06T10:28:18;97125.88;;;4.35;100.00
75425;BME280;64007;50.632;13.700;2024-01-06T10:30:43;97120.38;;;4.38;100.00
75425;BME280;64007;50.632;13.700;2024-01-06T10:33:09;97118.84;;;4.23;100.00
75425;BME280;64007;50.632;13.700;2024-01-06T10:35:39;97116.41;;;4.20;100.00
75425;BME280;64007;50.632;13.700;2024-01-06T10:38:07;97120.75;;;4.21;100.00
75425;BME280;64007;50.632;13.700;2024-01-06T10:40:32;97118.09;;;4.21;100.00
75425;BME280;64007;50.632;13.700;2024-01-06T10:43:00;97121.56;;;4.22;100.00
75425;BME280;64007;50.632;13.700;2024-01-06T10:45:28;97124.84;;;4.25;100.00
75425;BME280;64007;50.632;13.700;2024-01-06T10:47:54;97117.88;;;4.37;100.00
75425;BME280;64007;50.632;13.700;2024-01-06T10:50:21;97118.59;;;4.52;100.00
75425;BME280;64007;50.632;13.700;2024-01-06T10:52:47;97122.47;;;4.59;100.00
75425;BME280;64007;50.632;13.700;2024-01-06T10:55:15;97130.44;;;4.70;100.00
75425;BME280;64007;50.632;13.700;2024-01-06T10:57:46;97134.03;;;4.69;100.00
75425;BME280;64007;50.632;13.700;2024-01-06T11:00:12;97134.03;;;4.69;100.00
75425;BME280;64007;50.632;13.700;2024-01-06T11:02:39;97134.25;;;4.66;100.00
75425;BME280;64007;50.632;13.700;2024-01-06T11:05:06;97132.50;;;4.78;100.00
75425;BME280;64007;50.632;13.700;2024-01-06T11:07:33;97131.50;;;4.67;100.00
75425;BME280;64007;50.632;13.700;2024-01-06T11:10:14;97132.00;;;4.72;100.00
75425;BME280;64007;50.632;13.700;2024-01-06T11:12:44;97128.75;;;4.69;100.00
75425;BME280;64007;50.632;13.700;2024-01-06T11:15:09;97121.28;;;4.63;100.00
75425;BME280;64007;50.632;13.700;2024-01-06T11:17:52;97126.09;;;4.82;100.00
75425;BME280;64007;50.632;13.700;2024-01-06T11:20:24;97119.84;;;4.95;100.00
75425;BME280;64007;50.632;13.700;2024-01-06T11:22:51;97120.50;;;4.86;100.00
75425;BME280;64007;50.632;13.700;2024-01-06T11:25:20;97114.28;;;4.87;100.00
75425;BME280;64007;50.632;13.700;2024-01-06T11:27:49;97111.88;;;4.84;100.00
75425;BME280;64007;50.632;13.700;2024-01-06T11:30:23;97105.94;;;4.93;100.00
75425;BME280;64007;50.632;13.700;2024-01-06T11:32:51;97100.66;;;4.93;100.00
75425;BME280;64007;50.632;13.700;2024-01-06T11:35:19;97104.88;;;4.96;100.00
75425;BME280;64007;50.632;13.700;2024-01-06T11:43:01;97100.59;;;5.30;100.00
75425;BME280;64007;50.632;13.700;2024-01-06T11:45:28;97112.09;;;5.29;100.00
75425;BME280;64007;50.632;13.700;2024-01-06T11:47:56;97108.97;;;5.24;100.00
75425;BME280;64007;50.632;13.700;2024-01-06T11:50:25;97114.47;;;5.21;100.00
75425;BME280;64007;50.632;13.700;2024-01-06T11:52:52;97119.16;;;5.04;100.00
75425;BME280;64007;50.632;13.700;2024-01-06T11:55:18;97123.09;;;5.23;100.00
75425;BME280;64007;50.632;13.700;2024-01-06T11:57:44;97118.94;;;5.08;100.00
75425;BME280;64007;50.632;13.700;2024-01-06T12:00:11;97125.19;;;5.18;100.00
75425;BME280;64007;50.632;13.700;2024-01-06T12:02:40;97115.56;;;5.06;100.00
75425;BME280;64007;50.632;13.700;2024-01-06T12:05:11;97118.94;;;5.08;100.00
75425;BME280;64007;50.632;13.700;2024-01-06T12:07:37;97123.25;;;5.09;100.00
75425;BME280;64007;50.632;13.700;2024-01-06T12:10:03;97115.56;;;5.06;100.00
75425;BME280;64007;50.632;13.700;2024-01-06T12:12:29;97116.28;;;5.08;100.00
75425;BME280;64007;50.632;13.700;2024-01-06T12:14:55;97114.13;;;5.01;100.00
75425;BME280;64007;50.632;13.700;2024-01-06T12:17:21;97118.38;;;4.91;100.00
75425;BME280;64007;50.632;13.700;2024-01-06T12:19:47;97121.22;;;4.88;100.00
75425;BME280;64007;50.632;13.700;2024-01-06T12:22:14;97115.66;;;4.80;100.00
75425;BME280;64007;50.632;13.700;2024-01-06T12:24:41;97118.28;;;4.80;100.00
75425;BME280;64007;50.632;13.700;2024-01-06T12:27:09;97120.00;;;4.81;100.00
75425;BME280;64007;50.632;13.700;2024-01-06T12:29:41;97125.66;;;4.88;100.00
75425;BME280;64007;50.632;13.700;2024-01-06T12:32:08;97125.09;;;4.95;100.00
75425;BME280;64007;50.632;13.700;2024-01-06T12:34:37;97125.81;;;4.97;100.00
75425;BME280;64007;50.632;13.700;2024-01-06T12:37:03;97125.88;;;5.09;100.00
75425;BME280;64007;50.632;13.700;2024-01-06T12:39:29;97127.34;;;5.13;100.00
75425;BME280;64007;50.632;13.700;2024-01-06T12:41:56;97129.50;;;5.19;100.00
75425;BME280;64007;50.632;13.700;2024-01-06T12:44:22;97130.16;;;5.22;100.00
75425;BME280;64007;50.632;13.700;2024-01-06T12:46:49;97127.81;;;5.30;100.00
75425;BME280;64007;50.632;13.700;2024-01-06T12:49:14;97124.09;;;5.33;100.00
75425;BME280;64007;50.632;13.700;2024-01-06T12:51:40;97116.22;;;5.44;100.00